Nerlerit Inaat

KL  EN  DA
ASIAQ
Weather Now GREENLAND SURVEY
Updated [WGT/WGST] Temperature [°C] Wind [m/s] Air pressure [hPa] Relative humidity [%] Precipitation [mm]
Present Wind chill Speed Max
18.04 01:00-9,2-17,15,9 ⇓7,0101078n/a
18.04 00:00-8,6-16,15,6 ⇘7,1101177n/a
17.04 23:00-8,3-15,24,9 ⇓7,5101279n/a
17.04 22:00-8,4-14,33,7 ⇓6,1101382n/a
17.04 21:00-8,6-12,92,3 ⇓3,0101480n/a
17.04 20:00-7,6-13,13,4 ⇓4,2101468n/a
17.04 19:00-7,5-13,03,5 ⇘4,8101464n/a
17.04 18:00-8,1-12,52,4 ⇒3,3101565n/a
17.04 17:00-6,9-10,21,8 ⇘3,3101460n/a
17.04 16:00-7,2-11,32,3 ⇒4,0101562n/a
17.04 15:00-7,5-10,51,6 ⇘2,6101567n/a
17.04 14:00-8,7-13,62,7 ⇓3,3101580n/a
17.04 13:00-8,20,01,2 ⇘1,5101573n/a
17.04 12:00-8,40,00,6 ⇐1,0101570n/a
17.04 11:00-8,30,00,2 ⇘1,1101565n/a
17.04 10:00-7,0-10,31,8 ⇒2,3101561n/a
17.04 09:00-7,7-10,51,5 ⇘1,9101562n/a
17.04 08:00-9,3-13,32,0 ⇘2,5101467n/a
17.04 07:00-10,0-17,34,8 ⇓5,5101469n/a
17.04 06:00-10,0-19,78,8 ⇘10,1101375n/a
17.04 05:00-10,6-20,18,0 ⇘9,6101368n/a
17.04 04:00-10,3-20,910,5 ⇒12,8101271n/a
17.04 03:00-11,0-22,111,2 ⇒12,8101173n/a
17.04 02:00-9,8-20,310,8 ⇒13,5101174n/a
17.04 01:00-10,0-18,87,1 ⇘8,6101176n/a
Position: (70.75,-22.65)

[Back]